Time;durP1;ratioP1;P1;durP2;ratioP2;P2;SDS_P1;SDS_P2;PMS_P1;PMS_P2;Temp;Humidity;BMP_temperature;BMP_pressure;BME280_temperature;BME280_humidity;BME280_pressure;Samples;Min_cycle;Max_cycle;Signal;HPM_P1;HPM_P2
2022/05/14 00:01:26;;;;;;;21.40;8.00;;;;;;;11.98;99.12;102010.59;10379489;28;20064;-73
2022/05/14 00:06:27;;;;;;;25.27;7.93;;;;;;;11.94;100.00;102014.69;10364352;28;20045;-73
2022/05/14 00:16:47;;;;;;;26.67;8.10;;;;;;;11.90;100.00;102013.34;10381945;28;20053;-73
2022/05/14 00:21:47;;;;;;;36.97;8.48;;;;;;;11.92;100.00;102011.31;10380370;28;20041;-73
2022/05/14 00:26:47;;;;;;;20.38;8.38;;;;;;;11.91;100.00;102009.63;10379652;28;20038;-73
2022/05/14 00:31:48;;;;;;;15.82;7.95;;;;;;;11.92;99.38;102005.88;10379008;28;20069;-73
2022/05/14 00:36:48;;;;;;;24.63;7.18;;;;;;;11.87;100.00;101990.16;10378940;28;20466;-73
2022/05/14 00:41:49;;;;;;;24.17;7.55;;;;;;;11.87;98.83;102001.00;10379263;28;20041;-72
2022/05/14 00:46:59;;;;;;;23.48;7.72;;;;;;;11.82;96.51;102001.50;10378807;28;20041;-73
2022/05/14 00:51:59;;;;;;;34.97;9.23;;;;;;;11.75;99.21;101992.38;10378431;28;20480;-73
2022/05/14 00:57:03;;;;;;;15.40;7.10;;;;;;;11.75;98.61;101995.09;10380032;28;20060;-72
2022/05/14 01:02:06;;;;;;;21.52;8.90;;;;;;;11.71;99.19;101993.78;10361292;28;20373;-73
2022/05/14 01:07:12;;;;;;;24.92;9.23;;;;;;;11.69;97.50;101995.81;10378156;28;20037;-73
2022/05/14 01:12:13;;;;;;;20.98;8.98;;;;;;;11.65;96.48;102002.63;10361935;28;20042;-73
2022/05/14 01:17:13;;;;;;;20.67;6.95;;;;;;;11.60;95.71;101999.59;10359222;28;20076;-73
2022/05/14 01:22:35;;;;;;;20.98;7.50;;;;;;;11.56;96.51;102000.97;10378155;28;20038;-73
2022/05/14 01:27:35;;;;;;;48.05;8.65;;;;;;;11.52;95.55;102003.19;10376915;28;20122;-72
2022/05/14 01:32:36;;;;;;;20.90;8.20;;;;;;;11.46;95.01;101998.47;10376666;28;20500;-72
2022/05/14 01:37:37;;;;;;;34.83;8.85;;;;;;;11.46;94.76;102006.59;10377021;28;20030;-72
2022/05/14 01:42:37;;;;;;;20.15;7.97;;;;;;;11.38;94.70;102001.22;10358872;28;20517;-72
2022/05/14 01:47:37;;;;;;;36.25;9.45;;;;;;;11.39;95.56;102014.59;10377578;28;20038;-72
2022/05/14 01:52:38;;;;;;;34.33;9.02;;;;;;;11.41;95.15;102015.25;10377618;28;20527;-73
2022/05/14 01:57:38;;;;;;;15.20;9.07;;;;;;;11.41;95.52;102020.69;10358193;28;20034;-72
2022/05/14 02:02:38;;;;;;;25.23;9.40;;;;;;;11.39;94.70;102013.72;10360071;28;20041;-72
2022/05/14 02:07:39;;;;;;;25.48;8.82;;;;;;;11.35;95.09;102015.13;10375528;28;20084;-72
2022/05/14 02:12:40;;;;;;;26.70;8.73;;;;;;;11.31;94.49;102014.63;10374089;28;20034;-73
2022/05/14 02:17:40;;;;;;;30.77;9.68;;;;;;;11.29;94.17;102022.06;10377127;28;20054;-73
2022/05/14 02:22:40;;;;;;;26.25;8.98;;;;;;;11.30;94.60;102021.06;10375394;28;20038;-72
2022/05/14 02:27:41;;;;;;;33.83;8.60;;;;;;;11.26;94.12;102022.44;10358204;28;20469;-72
2022/05/14 02:32:41;;;;;;;22.33;9.90;;;;;;;11.21;94.17;102024.84;10375317;28;20088;-73
2022/05/14 02:37:42;;;;;;;31.60;10.38;;;;;;;11.14;92.90;102024.69;10374998;28;20038;-73
2022/05/14 02:42:42;;;;;;;28.55;9.50;;;;;;;11.06;92.89;102032.81;10357819;28;20041;-72
2022/05/14 02:47:42;;;;;;;35.25;9.45;;;;;;;11.04;92.75;102034.00;10373039;28;20113;-73
2022/05/14 02:52:43;;;;;;;31.83;10.50;;;;;;;11.02;92.20;102039.63;10374707;28;20389;-73
2022/05/14 02:57:43;;;;;;;23.45;9.02;;;;;;;11.02;91.64;102053.16;10357148;28;20030;-73
2022/05/14 03:02:44;;;;;;;28.05;8.02;;;;;;;10.99;93.21;102036.41;10374515;28;20045;-72
2022/05/14 03:07:44;;;;;;;31.55;9.65;;;;;;;10.97;93.61;102038.44;10356957;28;20458;-72
2022/05/14 03:12:44;;;;;;;22.98;7.82;;;;;;;10.98;92.25;102046.41;10383156;28;20045;-72
2022/05/14 03:17:45;;;;;;;21.08;9.25;;;;;;;10.95;93.49;102035.91;10383492;28;20046;-72
2022/05/14 03:22:45;;;;;;;17.90;7.93;;;;;;;10.96;93.17;102040.31;10384383;28;20037;-73
2022/05/14 03:27:46;;;;;;;19.75;10.18;;;;;;;10.89;91.68;102036.59;10380963;28;20408;-73
2022/05/14 03:32:46;;;;;;;14.65;8.93;;;;;;;10.87;91.79;102039.47;10382956;28;20045;-73
2022/05/14 03:37:46;;;;;;;45.05;9.35;;;;;;;10.85;92.53;102038.81;10380968;28;20503;-72
2022/05/14 03:42:47;;;;;;;19.98;8.40;;;;;;;10.82;92.67;102041.84;10381675;28;20120;-72
2022/05/14 03:47:47;;;;;;;27.88;9.18;;;;;;;10.83;92.09;102034.56;10381441;28;20030;-72
2022/05/14 03:52:47;;;;;;;34.63;10.57;;;;;;;10.81;93.17;102037.44;10363545;28;20499;-73
2022/05/14 03:57:48;;;;;;;25.25;8.18;;;;;;;10.84;92.86;102039.81;10381323;28;20393;-73
2022/05/14 04:02:48;;;;;;;11.38;7.57;;;;;;;10.86;92.52;102037.78;10381242;28;20065;-72
2022/05/14 04:07:49;;;;;;;18.00;9.10;;;;;;;10.86;92.50;102036.94;10380930;28;20100;-73
2022/05/14 04:12:49;;;;;;;29.08;9.85;;;;;;;10.99;93.78;102050.81;10382279;28;20049;-74
2022/05/14 04:17:51;;;;;;;40.97;9.05;;;;;;;11.02;93.44;102055.88;10384317;28;20073;-74
2022/05/14 04:22:51;;;;;;;21.33;8.93;;;;;;;11.06;93.01;102059.09;10381257;28;20057;-74
2022/05/14 04:27:52;;;;;;;12.18;7.60;;;;;;;11.07;93.03;102056.22;10383557;28;20076;-74
2022/05/14 04:32:52;;;;;;;32.65;9.77;;;;;;;11.10;92.03;102066.72;10383837;28;20034;-75
2022/05/14 04:37:52;;;;;;;17.88;7.35;;;;;;;11.22;92.50;102064.47;10384246;28;20041;-74
2022/05/14 04:42:53;;;;;;;28.35;8.48;;;;;;;11.41;93.69;102069.50;10383915;28;20377;-75
2022/05/14 04:47:53;;;;;;;16.10;8.63;;;;;;;11.64;94.21;102074.16;10382721;28;20117;-74
2022/05/14 04:52:54;;;;;;;26.08;9.00;;;;;;;11.93;96.03;102072.72;10384571;28;20053;-74
2022/05/14 04:57:54;;;;;;;19.65;8.02;;;;;;;12.19;97.05;102073.25;10381423;28;20454;-74
2022/05/14 05:08:14;;;;;;;24.23;7.50;;;;;;;12.59;97.67;102078.56;10366230;28;20037;-74
2022/05/14 05:13:18;;;;;;;29.83;8.15;;;;;;;12.83;98.57;102080.22;10380271;28;20038;-74
2022/05/14 05:18:18;;;;;;;20.80;7.07;;;;;;;13.54;97.18;102095.19;10379777;28;20044;-74
2022/05/14 05:23:20;;;;;;;9.30;6.55;;;;;;;14.17;99.01;102098.28;10379321;28;20489;-74
2022/05/14 05:28:21;;;;;;;14.60;4.68;;;;;;;13.91;97.28;102082.44;10361112;28;20025;-75
2022/05/14 05:33:23;;;;;;;11.40;4.93;;;;;;;13.64;97.01;102105.78;10378535;28;20120;-74
2022/05/14 05:38:23;;;;;;;14.55;6.18;;;;;;;14.72;95.00;102106.84;10361646;28;20033;-74
2022/05/14 05:43:24;;;;;;;14.95;6.20;;;;;;;15.52;96.07;102098.22;10378265;28;20045;-74
2022/05/14 05:48:24;;;;;;;20.55;6.28;;;;;;;16.32;94.44;102097.75;10376666;28;20038;-75
2022/05/14 05:56:46;;;;;;;14.88;5.85;;;;;;;17.13;91.75;102103.97;10376901;28;20029;-75
2022/05/14 05:58:45;;;;;;;13.55;4.53;;;;;;;17.87;89.31;102102.75;10376753;28;20037;-75
2022/05/14 06:03:46;;;;;;;11.88;4.43;;;;;;;18.30;90.34;102104.88;10377998;28;20374;-75
2022/05/14 06:08:49;;;;;;;12.30;5.40;;;;;;;18.83;88.56;102111.13;10376468;28;20037;-75
2022/05/14 06:13:50;;;;;;;18.58;5.05;;;;;;;19.39;88.13;102112.91;10358610;28;20049;-75
2022/05/14 06:18:51;;;;;;;12.23;5.47;;;;;;;19.73;88.26;102112.38;10359618;28;20097;-76
2022/05/14 06:23:51;;;;;;;5.75;4.00;;;;;;;20.47;88.03;102108.66;10358706;28;20497;-76
2022/05/14 06:28:52;;;;;;;15.98;4.22;;;;;;;20.04;90.58;102107.78;10357837;28;20038;-76
2022/05/14 06:33:52;;;;;;;6.78;4.30;;;;;;;19.44;90.05;102118.59;10374656;28;20481;-75
2022/05/14 06:38:53;;;;;;;14.27;5.28;;;;;;;19.73;89.91;102112.38;10358395;28;20068;-76
2022/05/14 06:43:53;;;;;;;8.60;3.78;;;;;;;20.33;87.00;102125.38;10373067;28;20073;-76
2022/05/14 06:48:54;;;;;;;5.57;4.53;;;;;;;20.69;85.50;102128.25;10374854;28;20420;-77
2022/05/14 06:53:55;;;;;;;14.57;4.82;;;;;;;21.63;84.17;102128.34;10357247;28;20042;-75
2022/05/14 06:58:56;;;;;;;6.32;4.32;;;;;;;21.72;82.82;102133.25;10357042;28;20425;-76
2022/05/14 07:09:23;;;;;;;16.83;7.45;;;;;;;21.07;80.78;102134.19;10373232;28;20593;-77
2022/05/14 07:14:23;;;;;;;16.63;2.97;;;;;;;20.73;80.00;102145.97;10356407;28;20065;-76
2022/05/14 07:19:25;;;;;;;16.90;5.80;;;;;;;21.40;78.07;102149.34;10359820;28;20040;-75
2022/05/14 07:24:28;;;;;;;16.40;5.57;;;;;;;22.51;72.99;102147.31;10369432;28;20029;-75
2022/05/14 07:29:29;;;;;;;5.05;4.40;;;;;;;23.59;72.28;102147.22;10366294;28;20030;-76
2022/05/14 07:34:30;;;;;;;7.60;4.80;;;;;;;24.43;70.67;102134.19;10360901;28;20109;-76
2022/05/14 07:39:37;;;;;;;20.52;5.68;;;;;;;24.80;68.96;102143.44;10356852;28;20037;-74
2022/05/14 07:44:39;;;;;;;9.00;4.68;;;;;;;24.79;66.37;102154.75;10358043;28;20034;-75
2022/05/14 07:49:42;;;;;;;9.70;4.50;;;;;;;25.19;63.81;102142.41;10357192;28;20060;-76
2022/05/14 07:54:42;;;;;;;9.48;4.47;;;;;;;25.27;61.25;102162.16;10356441;28;20492;-76
2022/05/14 07:59:42;;;;;;;12.20;4.00;;;;;;;25.88;63.08;102158.94;10382615;28;20034;-75
2022/05/14 08:04:44;;;;;;;14.30;5.45;;;;;;;26.21;58.85;102163.25;10379635;28;20106;-76
2022/05/14 08:09:44;;;;;;;19.92;5.05;;;;;;;26.22;58.91;102161.28;10381456;28;20469;-76
2022/05/14 08:14:45;;;;;;;21.25;6.40;;;;;;;26.20;54.47;102158.81;10380091;28;20054;-76
2022/05/14 08:19:45;;;;;;;11.80;5.30;;;;;;;26.45;57.13;102148.84;10362582;28;20042;-76
2022/05/14 08:24:45;;;;;;;17.93;4.90;;;;;;;26.76;47.00;102160.06;10378783;28;20458;-76
2022/05/14 08:29:47;;;;;;;4.30;3.90;;;;;;;26.59;47.71;102147.25;10380422;28;20693;-76
2022/05/14 08:34:49;;;;;;;6.80;4.10;;;;;;;26.50;52.89;102159.19;10362587;28;20034;-76
2022/05/14 08:39:50;;;;;;;9.20;3.80;;;;;;;26.52;50.33;102143.94;10379861;28;20125;-76
2022/05/14 08:44:51;;;;;;;9.02;4.18;;;;;;;26.77;47.62;102151.47;10380444;28;20042;-76
2022/05/14 08:49:53;;;;;;;6.05;3.15;;;;;;;25.05;52.86;102145.59;10363211;28;20065;-75
2022/05/14 08:54:59;;;;;;;21.20;5.32;;;;;;;23.72;53.58;102148.81;10379997;28;20030;-75
2022/05/14 08:59:59;;;;;;;8.27;4.68;;;;;;;23.82;53.18;102148.09;10360736;28;20037;-76
2022/05/14 09:05:11;;;;;;;12.48;3.97;;;;;;;24.72;53.95;102149.44;10360705;28;20046;-76
2022/05/14 09:10:26;;;;;;;13.10;4.68;;;;;;;26.16;51.54;102143.81;10378274;28;20044;-76
2022/05/14 09:15:31;;;;;;;4.75;3.83;;;;;;;24.47;50.27;102143.63;10360744;28;20050;-76
2022/05/14 09:20:45;;;;;;;16.95;6.38;;;;;;;26.03;51.86;102146.22;10377116;28;20166;-76
2022/05/14 09:25:45;;;;;;;12.80;4.68;;;;;;;27.68;50.70;102144.16;10360097;28;20029;-71
2022/05/14 09:30:53;;;;;;;8.75;5.35;;;;;;;28.87;47.19;102148.03;10343387;28;20042;-71
2022/05/14 09:35:55;;;;;;;15.70;5.88;;;;;;;28.25;44.81;102148.41;10377149;28;20034;-71
2022/05/14 09:41:07;;;;;;;8.88;4.32;;;;;;;28.04;48.60;102153.22;10375562;28;20040;-72
2022/05/14 09:46:22;;;;;;;13.68;4.63;;;;;;;28.94;41.49;102143.78;10377828;28;20038;-72
2022/05/14 09:51:36;;;;;;;6.43;4.43;;;;;;;27.78;37.93;102144.16;10359632;28;20065;-72
2022/05/14 09:57:28;;;;;;;10.95;4.60;;;;;;;27.35;45.10;102151.19;10358586;28;20032;-72
2022/05/14 10:02:43;;;;;;;7.47;4.53;;;;;;;28.20;40.63;102154.00;10344545;28;20038;-71
2022/05/14 10:08:21;;;;;;;15.60;5.90;;;;;;;28.33;36.73;102137.78;10376112;28;20049;-69
2022/05/14 10:13:38;;;;;;;8.75;4.72;;;;;;;29.03;37.48;102138.44;10359486;28;20150;-69
2022/05/14 10:18:48;;;;;;;7.95;3.70;;;;;;;29.37;38.47;102141.19;10376540;28;20054;-69
2022/05/14 10:30:17;;;;;;;29.17;5.53;;;;;;;29.60;35.46;102147.06;10340566;28;20045;-74
2022/05/14 10:35:34;;;;;;;7.75;4.50;;;;;;;30.55;36.79;102148.94;10330657;28;20034;-72
2022/05/14 10:40:53;;;;;;;9.45;4.05;;;;;;;28.33;43.32;102155.31;10383291;28;20041;-73
2022/05/14 10:45:55;;;;;;;8.85;4.32;;;;;;;27.97;44.56;102157.44;10399144;28;20029;-73
2022/05/14 10:50:55;;;;;;;10.45;4.93;;;;;;;27.97;42.25;102158.28;10398307;28;20060;-73
2022/05/14 10:56:16;;;;;;;9.32;4.47;;;;;;;26.93;44.30;102169.00;10414497;28;20116;-74
2022/05/14 11:01:52;;;;;;;9.40;4.05;;;;;;;26.16;45.02;102173.50;10415194;28;20452;-73
2022/05/14 11:06:55;;;;;;;14.82;5.95;;;;;;;26.01;46.13;102168.72;10415425;28;20460;-73
2022/05/14 11:11:58;;;;;;;9.52;4.72;;;;;;;27.58;42.96;102178.41;10397866;28;20033;-73
2022/05/14 11:16:58;;;;;;;5.43;4.10;;;;;;;29.20;40.46;102171.50;10412396;28;20045;-74
2022/05/14 11:21:59;;;;;;;9.05;4.93;;;;;;;29.55;39.55;102159.16;10397794;28;20040;-72
2022/05/14 11:27:00;;;;;;;17.40;5.80;;;;;;;29.76;36.42;102184.88;10413961;28;20127;-72
2022/05/14 11:32:05;;;;;;;9.02;5.05;;;;;;;29.97;37.90;102176.28;10399845;28;20362;-73
2022/05/14 11:37:05;;;;;;;6.47;3.17;;;;;;;29.72;34.81;102160.66;10421062;28;20484;-73
2022/05/14 11:42:09;;;;;;;10.02;3.42;;;;;;;29.64;35.78;102174.16;10404641;28;20105;-72
2022/05/14 11:47:32;;;;;;;18.05;3.75;;;;;;;29.68;35.46;102163.22;10405271;28;20128;-73
2022/05/14 11:52:54;;;;;;;11.85;4.13;;;;;;;29.52;34.78;102161.69;10421439;28;20087;-70
2022/05/14 11:58:04;;;;;;;4.75;4.00;;;;;;;29.48;35.61;102164.22;10421546;28;20520;-70
2022/05/14 12:03:32;;;;;;;8.48;4.13;;;;;;;29.58;36.04;102158.56;10405127;28;20029;-70
2022/05/14 12:09:00;;;;;;;12.65;4.78;;;;;;;29.46;35.15;102162.88;10403619;28;20039;-71
2022/05/14 12:14:05;;;;;;;6.95;3.90;;;;;;;29.46;35.49;102160.09;10421684;28;20456;-71
2022/05/14 12:19:14;;;;;;;13.27;5.17;;;;;;;29.41;36.55;102160.94;10420326;28;20132;-71
2022/05/14 12:24:24;;;;;;;5.70;4.97;;;;;;;29.36;35.57;102166.59;10403147;28;20037;-71
2022/05/14 12:29:32;;;;;;;7.43;4.70;;;;;;;29.18;34.89;102173.72;10402975;28;20033;-71
2022/05/14 12:34:37;;;;;;;8.27;5.60;;;;;;;29.03;35.51;102169.09;10420551;28;20038;-71
2022/05/14 12:39:37;;;;;;;14.23;4.05;;;;;;;28.95;35.62;102164.13;10402534;28;20035;-70
2022/05/14 12:44:45;;;;;;;8.45;5.63;;;;;;;28.93;36.95;102166.38;10419390;28;20041;-70
2022/05/14 12:49:46;;;;;;;8.70;3.95;;;;;;;28.49;36.59;102158.88;10419488;28;20033;-71
2022/05/14 12:54:57;;;;;;;12.70;4.72;;;;;;;28.39;35.15;102170.88;10420361;28;20033;-70
2022/05/14 12:59:57;;;;;;;9.07;4.38;;;;;;;28.58;38.91;102167.47;10419574;28;20029;-71
2022/05/14 13:05:11;;;;;;;8.18;3.90;;;;;;;28.50;36.78;102161.41;10417919;28;20080;-70
2022/05/14 13:10:12;;;;;;;12.40;4.43;;;;;;;28.45;37.57;102155.00;10418382;28;20037;-71
2022/05/14 13:15:12;;;;;;;4.82;4.03;;;;;;;28.28;38.27;102158.16;10401890;28;20361;-70
2022/05/14 13:20:22;;;;;;;19.75;4.45;;;;;;;28.22;37.03;102153.72;10401342;28;20069;-70
2022/05/14 13:25:25;;;;;;;12.00;3.63;;;;;;;27.93;36.69;102157.19;10400522;28;20091;-70
2022/05/14 13:30:33;;;;;;;12.35;5.57;;;;;;;27.83;37.44;102151.66;10420859;28;20029;-76
2022/05/14 13:40:53;;;;;;;4.55;3.30;;;;;;;27.72;38.39;102133.28;10416678;28;20472;-78
2022/05/14 13:46:07;;;;;;;8.52;4.82;;;;;;;27.68;38.16;102127.47;10399839;28;20069;-77
2022/05/14 13:51:17;;;;;;;7.43;4.22;;;;;;;27.82;39.06;102127.72;10416025;28;20057;-78
2022/05/14 13:56:20;;;;;;;7.88;3.90;;;;;;;27.64;39.40;102131.09;10417999;28;20029;-78
2022/05/14 14:01:34;;;;;;;15.00;4.88;;;;;;;27.39;38.63;102135.59;10400332;28;20056;-77
2022/05/14 14:06:35;;;;;;;12.45;4.70;;;;;;;27.06;40.39;102137.03;10384300;28;20029;-77
2022/05/14 14:11:36;;;;;;;12.05;4.43;;;;;;;27.12;40.53;102133.97;10383028;28;20030;-78
2022/05/14 14:16:37;;;;;;;13.13;4.10;;;;;;;26.94;40.28;102139.25;10416762;28;20477;-78
2022/05/14 14:21:38;;;;;;;10.75;5.63;;;;;;;26.65;40.55;102139.78;10397554;28;20443;-77
2022/05/14 14:26:39;;;;;;;10.35;4.22;;;;;;;26.39;40.95;102128.59;10398239;28;20041;-77
2022/05/14 14:31:39;;;;;;;6.03;4.22;;;;;;;26.14;40.56;102126.56;10399536;28;20037;-77
2022/05/14 14:36:40;;;;;;;4.93;3.33;;;;;;;25.43;42.16;102126.19;10399529;28;20450;-77
2022/05/14 14:41:41;;;;;;;10.35;4.88;;;;;;;25.03;42.11;102125.59;10416639;28;20037;-77
2022/05/14 14:46:41;;;;;;;4.95;3.30;;;;;;;25.09;42.15;102120.94;10398835;28;20167;-77
2022/05/14 14:51:42;;;;;;;17.52;4.75;;;;;;;24.97;42.83;102125.84;10415554;28;20061;-77
2022/05/14 14:56:42;;;;;;;10.93;4.40;;;;;;;24.81;43.28;102117.38;10415762;28;20396;-78
2022/05/14 15:01:51;;;;;;;13.43;3.90;;;;;;;24.52;43.07;102111.31;10416003;28;20279;-76
2022/05/14 15:06:51;;;;;;;6.88;4.45;;;;;;;24.36;43.34;102104.75;10420787;28;20273;-77
2022/05/14 15:11:52;;;;;;;8.07;4.22;;;;;;;24.23;43.35;102112.63;10391024;28;20035;-77
2022/05/14 15:16:53;;;;;;;7.47;3.95;;;;;;;24.21;43.49;102099.03;10423812;28;20128;-76
2022/05/14 15:21:54;;;;;;;5.03;3.20;;;;;;;23.99;43.72;102106.53;10423572;28;20052;-78
2022/05/14 15:26:55;;;;;;;3.20;2.90;;;;;;;23.80;43.29;102114.31;10405869;28;20033;-77
2022/05/14 15:32:05;;;;;;;9.70;3.83;;;;;;;23.74;43.82;102109.81;10405361;28;20124;-76
2022/05/14 15:37:05;;;;;;;6.80;4.47;;;;;;;23.42;44.22;102100.25;10426049;28;20032;-76
2022/05/14 15:42:09;;;;;;;12.13;3.35;;;;;;;23.31;43.89;102111.41;10421883;28;20034;-77
2022/05/14 15:47:09;;;;;;;4.32;3.92;;;;;;;23.26;44.45;102112.19;10388130;28;20040;-78
2022/05/14 15:52:10;;;;;;;8.88;2.65;;;;;;;22.97;44.92;102101.22;10388303;28;20045;-76
2022/05/14 15:57:11;;;;;;;9.02;4.07;;;;;;;22.87;44.99;102112.06;10404891;28;20030;-76
2022/05/14 16:02:12;;;;;;;6.50;3.15;;;;;;;22.60;45.15;102097.22;10405040;28;20385;-77
2022/05/14 16:07:12;;;;;;;4.95;4.00;;;;;;;22.39;45.28;102101.53;10403894;28;20045;-76
2022/05/14 16:17:31;;;;;;;11.60;4.78;;;;;;;21.59;46.04;102098.50;10421317;28;20053;-77
2022/05/14 16:22:32;;;;;;;15.05;3.75;;;;;;;21.05;46.00;102092.28;10386951;28;20049;-76
2022/05/14 16:27:32;;;;;;;11.68;4.97;;;;;;;20.62;45.95;102098.94;10404351;28;20034;-76
2022/05/14 16:32:33;;;;;;;10.43;4.05;;;;;;;20.12;47.58;102103.84;10421107;28;20116;-77
2022/05/14 16:37:33;;;;;;;11.23;3.95;;;;;;;19.98;46.71;102108.69;10403662;28;20358;-76
2022/05/14 16:42:34;;;;;;;13.95;4.72;;;;;;;19.69;47.50;102108.41;10403717;28;20083;-76
2022/05/14 16:47:35;;;;;;;7.60;4.13;;;;;;;19.17;50.99;102109.75;10421126;28;20109;-76
2022/05/14 16:52:35;;;;;;;10.13;3.42;;;;;;;19.20;47.98;102110.13;10418547;28;20061;-76
2022/05/14 16:57:37;;;;;;;5.78;3.85;;;;;;;19.05;49.99;102112.41;10420008;28;20061;-76
2022/05/14 17:02:38;;;;;;;12.63;4.45;;;;;;;18.90;49.42;102120.13;10402515;28;20385;-76
2022/05/14 17:07:39;;;;;;;7.15;3.47;;;;;;;18.82;48.42;102110.25;10419606;28;20061;-76
2022/05/14 17:12:39;;;;;;;8.80;3.70;;;;;;;18.60;49.84;102115.22;10419855;28;20500;-76
2022/05/14 17:17:40;;;;;;;15.20;4.38;;;;;;;18.52;50.02;102121.00;10417586;28;20058;-76
2022/05/14 17:22:40;;;;;;;16.13;4.38;;;;;;;18.36;52.26;102108.63;10417573;28;20076;-76
2022/05/14 17:27:40;;;;;;;11.10;4.45;;;;;;;18.13;52.48;102106.44;10416714;28;20084;-76
2022/05/14 17:32:41;;;;;;;17.55;4.18;;;;;;;18.12;52.29;102107.50;10417970;28;20552;-76
2022/05/14 17:43:00;;;;;;;9.45;3.38;;;;;;;17.95;51.90;102122.75;10417970;28;20037;-75
2022/05/14 17:48:02;;;;;;;14.80;4.20;;;;;;;17.80;52.64;102107.41;10401773;28;20037;-76
2022/05/14 17:53:03;;;;;;;9.75;4.10;;;;;;;17.74;51.75;102105.53;10417761;28;20037;-76
2022/05/14 17:58:04;;;;;;;11.68;4.43;;;;;;;17.67;51.76;102105.53;10417348;28;20037;-75
2022/05/14 18:03:05;;;;;;;8.57;3.97;;;;;;;17.54;53.83;102104.72;10416828;28;20472;-75
2022/05/14 18:08:06;;;;;;;4.07;3.42;;;;;;;17.38;55.50;102098.66;10415659;28;20060;-76
2022/05/14 18:13:07;;;;;;;12.32;3.83;;;;;;;17.33;54.70;102105.84;10400005;28;20116;-76
2022/05/14 18:18:08;;;;;;;22.00;4.50;;;;;;;17.25;52.59;102108.78;10381988;28;20485;-77
2022/05/14 18:23:08;;;;;;;9.13;4.18;;;;;;;17.12;54.92;102106.91;10416213;28;20137;-76
2022/05/14 18:28:09;;;;;;;12.88;4.50;;;;;;;16.99;56.08;102101.44;10416405;28;20120;-76
2022/05/14 18:33:12;;;;;;;23.38;4.65;;;;;;;16.88;55.15;102101.03;10399078;28;20460;-76
2022/05/14 18:38:13;;;;;;;10.70;4.55;;;;;;;16.79;54.26;102096.81;10415072;28;20036;-77
2022/05/14 18:43:15;;;;;;;6.63;3.97;;;;;;;16.62;54.82;102092.75;10415296;28;20032;-76
2022/05/14 18:48:16;;;;;;;13.73;5.00;;;;;;;16.44;54.98;102093.38;10398128;28;20044;-76
2022/05/14 18:53:17;;;;;;;17.17;4.05;;;;;;;16.29;55.23;102088.06;10397534;28;20038;-76
2022/05/14 18:58:17;;;;;;;18.65;5.53;;;;;;;16.09;54.85;102084.44;10415620;28;20119;-76
2022/05/14 19:03:17;;;;;;;12.23;5.47;;;;;;;15.97;55.38;102086.91;10416096;28;20449;-76
2022/05/14 19:08:19;;;;;;;6.20;4.20;;;;;;;15.82;55.64;102087.06;10397628;28;20069;-76
2022/05/14 19:13:19;;;;;;;12.45;5.28;;;;;;;15.65;55.74;102078.34;10415453;28;20041;-77
2022/05/14 19:18:20;;;;;;;6.07;4.22;;;;;;;15.53;56.55;102090.88;10382633;28;20107;-76
2022/05/14 19:23:21;;;;;;;7.07;4.38;;;;;;;15.40;59.16;102091.63;10415133;28;20042;-77
2022/05/14 19:28:21;;;;;;;14.13;4.38;;;;;;;15.23;58.69;102091.13;10397528;28;20480;-76
2022/05/14 19:33:22;;;;;;;17.92;4.82;;;;;;;15.13;58.13;102095.25;10413694;28;20065;-76
2022/05/14 19:38:26;;;;;;;19.52;6.15;;;;;;;14.96;58.52;102090.06;10415883;28;20116;-77
2022/05/14 19:43:38;;;;;;;14.20;6.57;;;;;;;14.80;58.60;102091.19;10396517;28;20075;-76
2022/05/14 19:48:40;;;;;;;8.82;5.88;;;;;;;14.70;59.21;102095.28;10397096;28;20083;-76
2022/05/14 19:53:42;;;;;;;13.10;5.40;;;;;;;14.55;59.44;102109.84;10418750;28;20087;-76
2022/05/14 19:58:44;;;;;;;18.83;6.53;;;;;;;14.42;59.55;102115.09;10421076;28;20428;-76
2022/05/14 20:03:44;;;;;;;15.60;6.63;;;;;;;14.28;59.99;102116.84;10423636;28;20033;-76
2022/05/14 20:08:45;;;;;;;9.43;5.85;;;;;;;14.20;59.82;102114.25;10423890;28;20085;-76
2022/05/14 20:13:45;;;;;;;12.93;6.63;;;;;;;14.09;60.41;102117.47;10422265;28;20041;-76
2022/05/14 20:24:05;;;;;;;30.58;8.48;;;;;;;13.86;60.99;102120.31;10421341;28;20037;-76
2022/05/14 20:29:07;;;;;;;12.13;5.65;;;;;;;13.75;61.76;102124.34;10404582;28;20069;-75
2022/05/14 20:34:07;;;;;;;16.95;7.15;;;;;;;13.68;61.82;102121.53;10421626;28;20163;-76
2022/05/14 20:39:08;;;;;;;14.32;6.55;;;;;;;13.61;62.20;102107.00;10403997;28;20079;-75
2022/05/14 20:44:08;;;;;;;15.75;6.88;;;;;;;13.53;61.87;102104.38;10421559;28;20026;-76
2022/05/14 20:49:09;;;;;;;17.70;7.25;;;;;;;13.43;62.70;102115.53;10422317;28;20036;-75
2022/05/14 20:54:09;;;;;;;20.38;7.25;;;;;;;13.35;63.08;102125.66;10421419;28;20037;-76
2022/05/14 20:59:10;;;;;;;29.30;9.27;;;;;;;13.24;63.34;102121.47;10419697;28;20099;-76
2022/05/14 21:04:10;;;;;;;15.55;10.57;;;;;;;13.16;64.05;102130.56;10420308;28;20044;-74
2022/05/14 21:09:11;;;;;;;23.55;10.07;;;;;;;13.13;64.23;102124.66;10420843;28;20099;-75
2022/05/14 21:14:11;;;;;;;13.48;8.15;;;;;;;13.07;65.98;102120.78;10421294;28;20124;-76
2022/05/14 21:19:12;;;;;;;22.00;9.43;;;;;;;13.08;66.42;102122.50;10421219;28;20567;-76
2022/05/14 21:24:13;;;;;;;20.08;9.40;;;;;;;13.07;67.14;102128.09;10401099;28;20030;-76
2022/05/14 21:29:14;;;;;;;23.40;7.32;;;;;;;13.02;67.23;102120.50;10420054;28;20037;-75
2022/05/14 21:39:33;;;;;;;21.08;7.00;;;;;;;12.96;69.71;102127.53;10418697;28;20033;-76
2022/05/14 21:44:34;;;;;;;21.38;8.38;;;;;;;12.96;72.47;102119.38;10419854;28;20424;-75
2022/05/14 21:49:34;;;;;;;19.92;7.63;;;;;;;12.90;71.35;102125.53;10417850;28;20021;-76
2022/05/14 21:54:35;;;;;;;18.90;6.68;;;;;;;12.85;70.53;102121.66;10420223;28;20040;-76
2022/05/14 21:59:35;;;;;;;16.70;8.45;;;;;;;12.79;73.42;102123.22;10399726;28;20380;-74
2022/05/14 22:04:39;;;;;;;21.52;9.00;;;;;;;12.79;73.34;102118.66;10418409;28;20128;-75
2022/05/14 22:09:39;;;;;;;15.00;7.72;;;;;;;12.76;73.52;102119.03;10399789;28;20102;-76
2022/05/14 22:14:40;;;;;;;32.63;9.52;;;;;;;12.71;73.14;102115.16;10417256;28;20037;-76
2022/05/14 22:19:40;;;;;;;25.17;7.82;;;;;;;12.65;75.24;102124.03;10418055;28;20053;-76
2022/05/14 22:24:41;;;;;;;30.77;9.18;;;;;;;12.63;74.12;102118.78;10417339;28;20041;-75
2022/05/14 22:29:41;;;;;;;21.52;7.93;;;;;;;12.53;74.69;102118.16;10416913;28;20053;-75
2022/05/14 22:34:42;;;;;;;17.23;8.27;;;;;;;12.51;78.18;102112.09;10417730;28;20033;-75
2022/05/14 22:45:02;;;;;;;16.08;8.38;;;;;;;12.39;76.69;102108.94;10416167;28;20033;-75
2022/05/14 22:50:02;;;;;;;17.00;8.80;;;;;;;12.33;75.17;102107.78;10416649;28;20038;-75
2022/05/14 22:55:03;;;;;;;17.63;9.23;;;;;;;12.27;75.07;102111.22;10415519;28;20453;-76
2022/05/14 23:00:06;;;;;;;33.53;8.63;;;;;;;12.21;77.16;102105.66;10415828;28;20029;-76
2022/05/14 23:05:07;;;;;;;30.25;9.88;;;;;;;12.19;82.14;102104.97;10382311;28;20033;-76
2022/05/14 23:10:08;;;;;;;38.88;11.35;;;;;;;12.18;81.15;102104.13;10397878;28;20033;-76
2022/05/14 23:15:09;;;;;;;17.92;8.50;;;;;;;12.16;79.87;102108.06;10398026;28;20034;-76
2022/05/14 23:20:14;;;;;;;26.90;8.00;;;;;;;12.09;80.08;102102.47;10415034;28;20072;-76
2022/05/14 23:25:16;;;;;;;39.50;9.45;;;;;;;12.03;79.55;102103.22;10399497;28;20029;-75
2022/05/14 23:30:18;;;;;;;22.50;8.18;;;;;;;12.00;78.38;102090.84;10405502;28;20030;-75
2022/05/14 23:35:24;;;;;;;22.27;9.00;;;;;;;11.94;78.09;102093.41;10404852;28;20040;-76
2022/05/14 23:40:25;;;;;;;30.60;7.90;;;;;;;11.91;79.50;102096.50;10405739;28;20029;-75
2022/05/14 23:45:25;;;;;;;24.70;9.77;;;;;;;11.84;80.28;102090.91;10423830;28;20060;-75
2022/05/14 23:50:26;;;;;;;25.45;7.55;;;;;;;11.89;83.09;102093.94;10421587;28;20376;-76
2022/05/14 23:55:26;;;;;;;20.23;9.70;;;;;;;11.90;86.26;102083.91;10421738;28;20034;-75
